createdAt,value
2022-10-24T17:56:34.436Z,992.08
2022-10-24T17:57:34.377Z,992.06
2022-10-24T17:58:34.354Z,992.03
2022-10-24T17:59:34.328Z,992.04
2022-10-24T18:00:34.309Z,992.05
2022-10-24T18:01:34.390Z,992.06
2022-10-24T18:02:34.258Z,992.08
2022-10-24T18:03:34.237Z,992.04
2022-10-24T18:04:34.207Z,992.07
2022-10-24T18:05:34.184Z,992.09
2022-10-24T18:06:34.161Z,992.12
2022-10-24T18:07:34.146Z,992.13
2022-10-24T18:08:34.118Z,992.16
2022-10-24T18:09:34.108Z,992.18
2022-10-24T18:10:34.084Z,992.25
2022-10-24T18:11:34.058Z,992.28
2022-10-24T18:12:34.071Z,992.33
2022-10-24T18:13:34.017Z,992.35
2022-10-24T18:14:34.010Z,992.37
2022-10-24T18:15:33.983Z,992.43
2022-10-24T18:16:33.961Z,992.46
2022-10-24T18:17:33.938Z,992.46
2022-10-24T18:18:33.925Z,992.43
2022-10-24T18:19:33.908Z,992.44
2022-10-24T18:20:33.902Z,992.45
2022-10-24T18:21:33.867Z,992.50
2022-10-24T18:22:33.902Z,992.48
2022-10-24T18:23:33.830Z,992.50
2022-10-24T18:24:33.821Z,992.53
2022-10-24T18:25:33.808Z,992.54
2022-10-24T18:26:33.764Z,992.53
2022-10-24T18:27:33.741Z,992.51
2022-10-24T18:28:33.730Z,992.56
2022-10-24T18:29:33.754Z,992.55
2022-10-24T18:30:33.685Z,992.54
2022-10-24T18:31:33.669Z,992.54
2022-10-24T18:32:33.657Z,992.58
2022-10-24T18:33:33.626Z,992.59
2022-10-24T18:34:33.620Z,992.62
2022-10-24T18:35:33.598Z,992.60
2022-10-24T18:36:33.568Z,992.62
2022-10-24T18:37:33.552Z,992.61
2022-10-24T18:38:33.529Z,992.59
2022-10-24T18:39:33.513Z,992.59
2022-10-24T18:40:33.529Z,992.57
2022-10-24T18:41:33.482Z,992.58
2022-10-24T18:42:33.535Z,992.60
2022-10-24T18:43:33.455Z,992.63
2022-10-24T18:44:33.420Z,992.62
2022-10-24T18:45:33.406Z,992.62
2022-10-24T18:46:33.381Z,992.61
2022-10-24T18:47:33.358Z,992.63
2022-10-24T18:48:33.348Z,992.59
2022-10-24T18:49:33.316Z,992.60
2022-10-24T18:50:33.303Z,992.58
2022-10-24T18:51:33.278Z,992.60
2022-10-24T18:52:33.258Z,992.57
2022-10-24T18:53:33.245Z,992.58
2022-10-24T18:54:33.275Z,992.56
2022-10-24T18:55:33.212Z,992.61
2022-10-24T18:56:33.191Z,992.62
2022-10-24T18:57:33.166Z,992.60
2022-10-24T18:58:33.148Z,992.61
2022-10-24T18:59:33.146Z,992.60
2022-10-24T19:00:33.139Z,992.57
2022-10-24T19:01:33.162Z,992.57
2022-10-24T19:02:33.197Z,992.61
2022-10-24T19:03:33.086Z,992.56
2022-10-24T19:04:33.029Z,992.58
2022-10-24T19:05:33.010Z,992.56
2022-10-24T19:06:32.994Z,992.63
2022-10-24T19:07:32.981Z,992.61
2022-10-24T19:08:32.950Z,992.61
2022-10-24T19:09:32.934Z,992.60
2022-10-24T19:10:32.916Z,992.58
2022-10-24T19:11:32.898Z,992.66
2022-10-24T19:12:32.877Z,992.62
2022-10-24T19:13:32.860Z,992.60
2022-10-24T19:14:32.835Z,992.58
2022-10-24T19:15:32.821Z,992.63
2022-10-24T19:16:32.799Z,992.66
2022-10-24T19:17:32.781Z,992.65
2022-10-24T19:18:32.763Z,992.71
2022-10-24T19:20:32.720Z,992.73
2022-10-24T19:21:32.702Z,992.73
2022-10-24T19:22:32.682Z,992.73
2022-10-24T19:23:32.667Z,992.76
2022-10-24T19:24:32.644Z,992.76
2022-10-24T19:25:32.623Z,992.71
2022-10-24T19:26:32.603Z,992.70
2022-10-24T19:27:32.587Z,992.78
2022-10-24T19:28:32.568Z,992.76
2022-10-24T19:29:32.547Z,992.76
2022-10-24T19:30:32.541Z,992.76
2022-10-24T19:31:32.524Z,992.78
2022-10-24T19:32:32.498Z,992.77
2022-10-24T19:33:32.488Z,992.71
2022-10-24T19:34:32.452Z,992.77
2022-10-24T19:35:32.458Z,992.74
2022-10-24T19:36:32.413Z,992.64
2022-10-24T19:37:32.411Z,992.70
2022-10-24T19:38:32.381Z,992.65
2022-10-24T19:39:33.943Z,992.66
2022-10-24T19:40:32.335Z,992.66
2022-10-24T19:41:32.320Z,992.73
2022-10-24T19:42:32.307Z,992.69
2022-10-24T19:43:32.275Z,992.74
2022-10-24T19:44:32.257Z,992.76
2022-10-24T19:45:32.238Z,992.74
2022-10-24T19:46:32.226Z,992.72
2022-10-24T19:47:32.199Z,992.78
2022-10-24T19:48:32.184Z,992.85
2022-10-24T19:49:32.162Z,992.88
2022-10-24T19:50:32.145Z,992.90
2022-10-24T19:51:32.124Z,992.90
2022-10-24T19:52:32.111Z,992.89
2022-10-24T19:53:32.088Z,992.93
2022-10-24T19:54:32.073Z,992.87
2022-10-24T19:55:32.053Z,992.83
2022-10-24T19:56:32.031Z,992.86
2022-10-24T19:57:32.013Z,992.86
2022-10-24T19:58:31.990Z,992.90
2022-10-24T19:59:31.967Z,992.93
2022-10-24T20:00:31.969Z,992.94
2022-10-24T20:01:32.175Z,992.95
2022-10-24T20:02:31.913Z,992.93
2022-10-24T20:03:31.894Z,992.92
2022-10-24T20:04:31.875Z,992.89
2022-10-24T20:05:31.857Z,992.95
2022-10-24T20:06:31.837Z,993.00
2022-10-24T20:07:31.834Z,993.00
2022-10-24T20:08:31.803Z,992.93
2022-10-24T20:09:31.780Z,993.00
2022-10-24T20:10:31.763Z,992.94
2022-10-24T20:11:31.745Z,992.90
2022-10-24T20:12:31.732Z,992.86
2022-10-24T20:13:31.711Z,992.83
2022-10-24T20:14:31.704Z,992.84
2022-10-24T20:15:31.679Z,992.85
2022-10-24T20:16:31.663Z,992.87
2022-10-24T20:17:31.629Z,992.85
2022-10-24T20:18:31.644Z,992.91
2022-10-24T20:19:31.607Z,992.91
2022-10-24T20:20:31.589Z,992.94
2022-10-24T20:21:31.559Z,992.94
2022-10-24T20:22:31.565Z,992.95
2022-10-24T20:23:31.522Z,992.96
2022-10-24T20:24:31.502Z,992.98
2022-10-24T20:25:31.478Z,992.97
2022-10-24T20:26:31.478Z,993.02
2022-10-24T20:27:31.449Z,993.06
2022-10-24T20:28:31.424Z,993.05
2022-10-24T20:29:31.407Z,993.10
2022-10-24T20:30:31.385Z,993.09
2022-10-24T20:31:31.366Z,993.12
2022-10-24T20:32:31.350Z,993.11
2022-10-24T20:33:31.326Z,993.11
2022-10-24T20:34:31.309Z,993.16
2022-10-24T20:35:31.292Z,993.15
2022-10-24T20:36:31.271Z,993.22
2022-10-24T20:37:31.262Z,993.20
2022-10-24T20:38:31.232Z,993.22
2022-10-24T20:39:31.241Z,993.21
2022-10-24T20:40:31.207Z,993.19
2022-10-24T20:41:31.192Z,993.22
2022-10-24T20:42:31.162Z,993.19
2022-10-24T20:43:31.141Z,993.23
2022-10-24T20:44:31.128Z,993.23
2022-10-24T20:45:31.103Z,993.22
2022-10-24T20:46:31.082Z,993.20
2022-10-24T20:47:31.082Z,993.21
2022-10-24T20:48:31.057Z,993.27
2022-10-24T20:49:31.027Z,993.21
2022-10-24T20:50:31.012Z,993.27
2022-10-24T20:51:30.997Z,993.27
2022-10-24T20:52:30.975Z,993.27
2022-10-24T20:53:30.955Z,993.30
2022-10-24T20:54:30.930Z,993.33
2022-10-24T20:55:43.451Z,993.34
2022-10-24T20:56:30.899Z,993.37
2022-10-24T20:57:30.878Z,993.43
2022-10-24T20:58:30.857Z,993.47
2022-10-24T20:59:30.839Z,993.47
2022-10-24T21:00:30.931Z,993.49
2022-10-24T21:01:30.924Z,993.52
2022-10-24T21:02:30.918Z,993.48
2022-10-24T21:03:30.760Z,993.50
2022-10-24T21:04:30.771Z,993.52
2022-10-24T21:05:30.731Z,993.51
2022-10-24T21:06:30.705Z,993.57
2022-10-24T21:07:30.681Z,993.57
2022-10-24T21:08:30.663Z,993.51
2022-10-24T21:09:30.645Z,993.55
2022-10-24T21:10:30.622Z,993.53
2022-10-24T21:11:30.608Z,993.59
2022-10-24T21:12:30.597Z,993.58
2022-10-24T21:13:30.570Z,993.55
2022-10-24T21:14:30.558Z,993.60
2022-10-24T21:15:30.531Z,993.57
2022-10-24T21:16:30.513Z,993.60
2022-10-24T21:17:30.505Z,993.60
2022-10-24T21:18:30.475Z,993.61
2022-10-24T21:19:30.456Z,993.66
2022-10-24T21:20:30.434Z,993.64
2022-10-24T21:21:30.421Z,993.67
2022-10-24T21:22:30.391Z,993.68
2022-10-24T21:23:30.378Z,993.67
2022-10-24T21:24:30.362Z,993.65
2022-10-24T21:25:30.442Z,993.62
2022-10-24T21:26:30.324Z,993.68
2022-10-24T21:27:30.295Z,993.71
2022-10-24T21:28:30.315Z,993.70
2022-10-24T21:29:34.358Z,993.75
2022-10-24T21:30:30.242Z,993.81
2022-10-24T21:31:30.228Z,993.83
2022-10-24T21:32:30.205Z,993.89
2022-10-24T21:33:30.182Z,993.93
2022-10-24T21:34:33.343Z,993.89
2022-10-24T21:35:30.134Z,993.95
2022-10-24T21:36:30.117Z,993.90
2022-10-24T21:37:30.098Z,993.92
2022-10-24T21:38:30.074Z,993.88
2022-10-24T21:39:30.062Z,993.94
2022-10-24T21:40:30.048Z,993.91
2022-10-24T21:41:30.029Z,993.97
2022-10-24T21:42:29.999Z,993.95
2022-10-24T21:43:29.981Z,993.94
2022-10-24T21:44:29.996Z,993.99
2022-10-24T21:45:29.947Z,993.96
2022-10-24T21:46:29.926Z,993.96
2022-10-24T21:47:29.896Z,993.98
2022-10-24T21:48:29.889Z,994.00
2022-10-24T21:49:29.857Z,993.99
2022-10-24T21:50:29.841Z,993.96
2022-10-24T21:51:29.818Z,993.96
2022-10-24T21:52:29.796Z,993.99
2022-10-24T21:53:29.790Z,993.97
2022-10-24T21:54:29.769Z,993.97
2022-10-24T21:55:29.739Z,993.99
2022-10-24T21:56:29.723Z,994.00
2022-10-24T21:57:29.700Z,994.02
2022-10-24T21:58:29.679Z,993.99
2022-10-24T21:59:29.662Z,994.02
2022-10-24T22:00:29.639Z,994.04
2022-10-24T22:01:29.789Z,994.05
2022-10-24T22:02:29.732Z,994.11
2022-10-24T22:03:29.605Z,994.12
2022-10-24T22:04:29.564Z,994.12
2022-10-24T22:05:29.537Z,994.09
2022-10-24T22:06:29.519Z,994.12
2022-10-24T22:07:29.501Z,994.15
2022-10-24T22:08:29.493Z,994.11
2022-10-24T22:09:29.461Z,994.10
2022-10-24T22:10:29.437Z,994.13
2022-10-24T22:11:29.417Z,994.13
2022-10-24T22:12:29.403Z,994.15
2022-10-24T22:13:29.379Z,994.14
2022-10-24T22:14:29.359Z,994.23
2022-10-24T22:15:29.340Z,994.20
2022-10-24T22:16:29.322Z,994.15
2022-10-24T22:17:29.298Z,994.21
2022-10-24T22:18:29.295Z,994.20
2022-10-24T22:19:29.261Z,994.22
2022-10-24T22:20:29.240Z,994.21
2022-10-24T22:21:29.221Z,994.20
2022-10-24T22:22:29.202Z,994.17
2022-10-24T22:23:29.182Z,994.21
2022-10-24T22:24:29.160Z,994.20
2022-10-24T22:25:29.150Z,994.23
2022-10-24T22:26:29.123Z,994.16
2022-10-24T22:27:29.106Z,994.17
2022-10-24T22:28:29.090Z,994.20
2022-10-24T22:29:29.065Z,994.20
2022-10-24T22:30:29.042Z,994.23
2022-10-24T22:31:29.031Z,994.24
2022-10-24T22:32:29.004Z,994.18
2022-10-24T22:33:28.992Z,994.23
2022-10-24T22:34:28.967Z,994.19
2022-10-24T22:35:28.943Z,994.17
2022-10-24T22:36:28.923Z,994.18
2022-10-24T22:37:28.904Z,994.24
2022-10-24T22:38:28.881Z,994.28
2022-10-24T22:39:28.861Z,994.30
2022-10-24T22:40:28.839Z,994.31
2022-10-24T22:41:28.821Z,994.36
2022-10-24T22:42:28.806Z,994.38
2022-10-24T22:43:28.784Z,994.39
2022-10-24T22:44:28.764Z,994.37
2022-10-24T22:45:28.740Z,994.40
2022-10-24T22:46:28.725Z,994.43
2022-10-24T22:47:28.703Z,994.39
2022-10-24T22:48:28.678Z,994.40
2022-10-24T22:49:28.665Z,994.42
2022-10-24T22:50:28.643Z,994.45
2022-10-24T22:51:28.660Z,994.46
2022-10-24T22:52:28.599Z,994.42
2022-10-24T22:53:28.611Z,994.43
2022-10-24T22:54:28.560Z,994.45
2022-10-24T22:55:28.544Z,994.45
2022-10-24T22:56:28.522Z,994.51
2022-10-24T22:57:28.565Z,994.56
2022-10-24T22:58:28.482Z,994.54
2022-10-24T22:59:28.474Z,994.57
2022-10-24T23:00:28.440Z,994.53
2022-10-24T23:01:28.544Z,994.55
2022-10-24T23:02:28.570Z,994.55
2022-10-24T23:03:28.397Z,994.54
2022-10-24T23:04:28.364Z,994.59
2022-10-24T23:05:28.384Z,994.54
2022-10-24T23:06:28.406Z,994.53
2022-10-24T23:07:28.421Z,994.57
2022-10-24T23:08:28.304Z,994.54
2022-10-24T23:09:28.321Z,994.56
2022-10-24T23:10:28.273Z,994.59
2022-10-24T23:11:28.246Z,994.60
2022-10-24T23:12:28.263Z,994.54
2022-10-24T23:13:28.172Z,994.58
2022-10-24T23:14:28.152Z,994.59
2022-10-24T23:15:28.135Z,994.58
2022-10-24T23:16:28.116Z,994.65
2022-10-24T23:17:28.093Z,994.62
2022-10-24T23:18:28.074Z,994.63
2022-10-24T23:19:28.061Z,994.56
2022-10-24T23:20:28.037Z,994.57
2022-10-24T23:21:28.021Z,994.56
2022-10-24T23:22:28.064Z,994.61
2022-10-24T23:23:29.478Z,994.60
2022-10-24T23:24:27.956Z,994.62
2022-10-24T23:25:27.938Z,994.61
2022-10-24T23:26:27.914Z,994.66
2022-10-24T23:27:27.891Z,994.68
2022-10-24T23:28:27.881Z,994.68
2022-10-24T23:29:27.858Z,994.67
2022-10-24T23:30:27.836Z,994.68
2022-10-24T23:31:27.833Z,994.69
2022-10-24T23:32:27.796Z,994.63
2022-10-24T23:33:27.769Z,994.64
2022-10-24T23:34:27.755Z,994.67
2022-10-24T23:35:27.734Z,994.64
2022-10-24T23:36:29.375Z,994.65
2022-10-24T23:37:27.689Z,994.69
2022-10-24T23:38:27.670Z,994.68
2022-10-24T23:39:27.653Z,994.76
2022-10-24T23:40:27.629Z,994.74
2022-10-24T23:41:27.609Z,994.77
2022-10-24T23:42:27.590Z,994.74
2022-10-24T23:43:27.568Z,994.74
2022-10-24T23:44:27.546Z,994.78
2022-10-24T23:45:27.525Z,994.79
2022-10-24T23:46:27.512Z,994.78
2022-10-24T23:47:27.488Z,994.80
2022-10-24T23:48:27.464Z,994.79
2022-10-24T23:49:27.445Z,994.75
2022-10-24T23:50:27.420Z,994.73
2022-10-24T23:51:27.407Z,994.78
2022-10-24T23:52:27.398Z,994.77
2022-10-24T23:53:27.367Z,994.80
2022-10-24T23:54:27.342Z,994.77
2022-10-24T23:55:27.322Z,994.76
2022-10-24T23:56:27.301Z,994.77
2022-10-24T23:57:27.285Z,994.82
2022-10-24T23:58:27.265Z,994.79
2022-10-24T23:59:27.236Z,994.76
